Time;durP1;ratioP1;P1;durP2;ratioP2;P2;SDS_P1;SDS_P2;PMS_P1;PMS_P2;Temp;Humidity;BMP_temperature;BMP_pressure;BME280_temperature;BME280_humidity;BME280_pressure;Samples;Min_cycle;Max_cycle;Signal;HPM_P1;HPM_P2
2021/07/13 00:01:59;;;;;;;;;4.25;4.00;;;;;26.45;45.57;100960.81;5060884;28;45367;-76
2021/07/13 00:04:25;;;;;;;;;4.50;4.00;;;;;26.56;45.30;100986.06;5060237;28;45369;-76
2021/07/13 00:06:50;;;;;;;;;5.00;5.00;;;;;26.83;45.11;101026.84;5060872;28;45408;-76
2021/07/13 00:09:18;;;;;;;;;5.00;4.25;;;;;26.83;45.20;101024.16;5059503;28;48079;-77
2021/07/13 00:11:43;;;;;;;;;5.25;5.25;;;;;26.72;45.41;101011.47;5061063;28;45309;-76
2021/07/13 00:14:09;;;;;;;;;4.50;4.50;;;;;26.22;45.25;100928.22;5066106;28;45395;-76
2021/07/13 00:16:34;;;;;;;;;5.50;4.00;;;;;26.61;45.73;100988.91;5080699;28;45362;-76
2021/07/13 00:19:00;;;;;;;;;4.75;4.75;;;;;26.72;45.23;100990.97;5081071;28;46312;-76
2021/07/13 00:21:25;;;;;;;;;5.25;5.25;;;;;26.61;45.50;100986.25;5081125;28;45211;-76
2021/07/13 00:23:51;;;;;;;;;5.00;5.00;;;;;26.69;45.43;100999.38;5080711;28;45383;-76
2021/07/13 00:26:16;;;;;;;;;4.00;4.00;;;;;26.42;45.25;100954.03;5081179;28;45446;-76
2021/07/13 00:28:42;;;;;;;;;4.00;3.25;;;;;26.72;45.70;101009.63;5080655;28;46163;-76
2021/07/13 00:31:08;;;;;;;;;6.25;5.25;;;;;26.84;45.66;101035.69;5067197;28;45460;-76
2021/07/13 00:33:34;;;;;;;;;6.00;5.00;;;;;26.36;45.23;100953.00;5060639;28;45279;-76
2021/07/13 00:36:00;;;;;;;;;6.00;5.00;;;;;26.54;45.80;100980.09;5060500;28;45277;-76
2021/07/13 00:38:25;;;;;;;;;5.25;4.00;;;;;26.66;45.82;101006.97;5072499;28;47601;-76
2021/07/13 00:40:51;;;;;;;;;6.00;4.50;;;;;26.48;45.58;100973.75;5059234;28;45347;-76
2021/07/13 00:43:16;;;;;;;;;4.75;4.75;;;;;26.83;45.76;101036.69;5079329;28;45475;-77
2021/07/13 00:45:42;;;;;;;;;6.00;4.75;;;;;26.83;45.74;101032.19;5080849;28;45331;-76
2021/07/13 00:48:09;;;;;;;;;5.50;5.50;;;;;26.33;45.51;100950.78;5080487;28;45800;-77
2021/07/13 00:50:35;;;;;;;;;4.75;4.75;;;;;26.48;45.46;100965.75;5080886;27;45262;-76
2021/07/13 00:53:03;;;;;;;;;5.25;4.00;;;;;26.51;45.39;100976.84;5079319;28;45355;-76
2021/07/13 00:55:29;;;;;;;;;5.00;4.50;;;;;26.70;45.75;101002.88;5080769;28;45414;-76
2021/07/13 00:57:56;;;;;;;;;5.50;5.00;;;;;26.41;45.82;100960.41;5080089;28;45481;-76
2021/07/13 01:00:23;;;;;;;;;6.00;4.25;;;;;26.84;45.34;101031.16;5078859;28;45838;-76
2021/07/13 01:03:01;;;;;;;;;6.00;4.75;;;;;26.49;46.02;100986.88;5079061;28;45261;-76
2021/07/13 01:05:32;;;;;;;;;5.50;4.00;;;;;26.51;46.03;100978.69;5080591;28;45173;-76
2021/07/13 01:07:57;;;;;;;;;4.25;4.00;;;;;26.84;45.55;101031.16;5079903;28;45469;-76
2021/07/13 01:10:37;;;;;;;;;6.50;5.50;;;;;26.85;45.73;101027.44;5080055;28;45537;-76
2021/07/13 01:13:07;;;;;;;;;6.75;5.00;;;;;26.85;45.60;101027.44;5081338;28;45427;-76
2021/07/13 01:15:38;;;;;;;;;6.25;4.75;;;;;26.62;45.66;100979.91;5080776;28;45318;-76
2021/07/13 01:18:16;;;;;;;;;4.00;4.00;;;;;26.81;45.75;101009.41;5079720;28;45405;-76
2021/07/13 01:21:19;;;;;;;;;6.75;4.75;;;;;26.86;45.73;101006.91;5080320;28;45310;-76
2021/07/13 01:23:51;;;;;;;;;4.50;4.00;;;;;26.85;45.52;101003.41;5080035;27;45334;-76
2021/07/13 01:26:45;;;;;;;;;5.00;5.00;;;;;26.77;45.66;100982.31;5078930;28;45514;-76
2021/07/13 01:29:16;;;;;;;;;4.50;4.50;;;;;26.46;45.32;100914.47;5084104;28;45384;-76
2021/07/13 01:31:44;;;;;;;;;4.00;4.00;;;;;26.65;45.31;100950.09;5067949;27;45485;-76
2021/07/13 01:34:24;;;;;;;;;5.00;4.00;;;;;26.74;45.98;100958.72;5066712;28;45312;-76
2021/07/13 01:36:54;;;;;;;;;6.75;5.75;;;;;26.70;45.32;100952.97;5072069;28;45338;-76
2021/07/13 01:39:20;;;;;;;;;5.75;4.00;;;;;26.38;45.70;100902.97;5072690;27;45543;-76
2021/07/13 01:41:48;;;;;;;;;4.00;4.00;;;;;26.48;45.41;100925.72;5074220;28;45602;-76
2021/07/13 01:44:15;;;;;;;;;5.00;5.00;;;;;26.36;45.92;100910.31;5074238;28;45491;-76
2021/07/13 01:46:41;;;;;;;;;6.00;4.00;;;;;26.42;45.82;100919.34;5086825;28;45341;-76
2021/07/13 01:49:08;;;;;;;;;4.25;4.25;;;;;26.48;45.37;100931.91;5087062;28;45492;-76
2021/07/13 01:51:35;;;;;;;;;5.50;4.25;;;;;26.56;45.51;100932.69;5087217;28;45213;-76
2021/07/13 01:54:10;;;;;;;;;6.00;3.25;;;;;26.38;46.08;100897.63;5102359;27;45299;-76
2021/07/13 01:56:37;;;;;;;;;4.00;4.00;;;;;26.65;45.76;100930.63;5085355;28;45277;-76
2021/07/13 01:59:05;;;;;;;;;5.00;5.00;;;;;26.61;45.56;100933.72;5085798;28;46440;-76
2021/07/13 02:01:32;;;;;;;;;4.75;4.75;;;;;26.65;45.67;100951.97;5086594;27;45448;-76
2021/07/13 02:04:00;;;;;;;;;6.00;4.25;;;;;26.37;45.83;100906.63;5086532;28;45727;-76
2021/07/13 02:06:26;;;;;;;;;5.00;5.00;;;;;26.47;45.69;100929.41;5086392;28;45310;-76
2021/07/13 02:08:55;;;;;;;;;6.00;4.25;;;;;26.37;45.46;100927.97;5084419;28;46150;-76
2021/07/13 02:11:22;;;;;;;;;4.00;4.00;;;;;26.73;45.90;100978.41;5086465;28;45260;-76
2021/07/13 02:13:47;;;;;;;;;5.33;4.00;;;;;26.46;45.67;100941.13;5083682;28;45360;-76
2021/07/13 02:16:13;;;;;;;;;4.33;4.33;;;;;26.29;45.87;100914.84;5085056;28;45555;-76
2021/07/13 02:18:40;;;;;;;;;4.33;4.33;;;;;26.35;45.85;100913.22;5084967;28;46533;-76
2021/07/13 02:21:09;;;;;;;;;4.75;4.50;;;;;26.62;45.85;100954.00;5086386;28;45319;-76
2021/07/13 02:23:36;;;;;;;;;4.50;4.50;;;;;26.72;45.53;100964.28;5086706;27;45347;-76
2021/07/13 02:26:04;;;;;;;;;3.00;3.00;;;;;26.18;45.43;100885.13;5102618;27;45491;-76
2021/07/13 02:28:35;;;;;;;;;5.00;3.00;;;;;26.76;45.39;100971.84;5084518;28;47893;-76
2021/07/13 02:31:13;;;;;;;;;4.50;4.00;;;;;26.41;46.00;100918.53;5081209;28;45483;-76
2021/07/13 02:34:03;;;;;;;;;4.25;3.00;;;;;26.76;45.45;100975.31;5066051;28;45350;-76
2021/07/13 02:36:32;;;;;;;;;4.00;4.00;;;;;26.38;45.18;100920.81;5083818;28;46169;-76
2021/07/13 02:39:00;;;;;;;;;4.33;3.67;;;;;26.32;45.48;100909.13;5081432;28;47090;-76
2021/07/13 02:41:27;;;;;;;;;4.00;3.25;;;;;26.29;45.39;100899.69;5064807;28;45216;-76
2021/07/13 02:43:54;;;;;;;;;3.00;3.00;;;;;26.77;45.53;100971.66;5071098;28;45283;-76
2021/07/13 02:46:21;;;;;;;;;4.00;4.00;;;;;26.48;45.50;100923.88;5062295;28;45483;-76
2021/07/13 02:48:46;;;;;;;;;4.75;3.75;;;;;26.32;45.57;100901.09;5062203;28;46625;-75
2021/07/13 02:51:14;;;;;;;;;4.50;4.50;;;;;26.34;45.44;100908.88;5061717;28;45342;-76
2021/07/13 02:53:42;;;;;;;;;3.00;3.00;;;;;26.52;45.35;100941.09;5062579;28;45304;-76
2021/07/13 02:56:08;;;;;;;;;6.50;4.00;;;;;26.68;45.52;100956.88;5060559;28;45437;-76
2021/07/13 02:58:36;;;;;;;;;3.75;3.75;;;;;26.45;45.51;100926.13;5061738;28;46521;-75
2021/07/13 03:01:04;;;;;;;;;5.75;4.00;;;;;26.62;45.83;100962.00;5062474;28;45352;-76
2021/07/13 03:03:30;;;;;;;;;4.50;4.00;;;;;26.26;45.58;100923.25;5062511;28;45430;-76
2021/07/13 03:05:56;;;;;;;;;7.50;5.25;;;;;26.37;45.90;100940.50;5061968;28;46661;-76
2021/07/13 03:08:22;;;;;;;;;4.75;4.75;;;;;26.33;45.42;100916.09;5061393;28;46428;-76
2021/07/13 03:10:49;;;;;;;;;4.75;4.75;;;;;26.36;45.70;100926.31;5061565;28;45352;-76
2021/07/13 03:13:16;;;;;;;;;4.00;4.00;;;;;26.43;45.24;100937.00;5062091;28;45360;-76
2021/07/13 03:15:42;;;;;;;;;3.25;3.25;;;;;26.34;45.69;100917.72;5061944;28;45257;-76
2021/07/13 03:18:08;;;;;;;;;5.50;4.25;;;;;26.23;46.05;100903.16;5061067;28;45679;-76
2021/07/13 03:20:35;;;;;;;;;3.50;3.50;;;;;26.16;45.50;100887.19;5061731;28;45305;-76
2021/07/13 03:23:02;;;;;;;;;4.75;4.75;;;;;26.69;45.30;100958.53;5061971;28;45442;-76
2021/07/13 03:25:38;;;;;;;;;4.50;4.25;;;;;26.45;45.59;100908.28;5069007;28;45212;-76
2021/07/13 03:28:05;;;;;;;;;3.75;3.75;;;;;26.31;45.63;100896.78;5081571;27;45441;-75
2021/07/13 03:30:31;;;;;;;;;6.50;6.00;;;;;26.25;45.55;100898.47;5071753;28;45746;-76
2021/07/13 03:32:58;;;;;;;;;3.75;3.75;;;;;26.32;45.83;100921.63;5061448;28;45417;-76
2021/07/13 03:35:26;;;;;;;;;6.00;5.50;;;;;26.34;45.30;100922.22;5061630;28;45503;-76
2021/07/13 03:37:52;;;;;;;;;5.00;5.00;;;;;26.22;45.95;100906.06;5070843;28;48049;-76
2021/07/13 03:40:22;;;;;;;;;3.00;3.00;;;;;26.22;45.75;100903.38;5061836;28;45217;-76
2021/07/13 03:42:49;;;;;;;;;4.25;4.25;;;;;26.68;45.89;100972.88;5077993;28;45484;-75
2021/07/13 03:45:18;;;;;;;;;3.00;3.00;;;;;26.67;46.09;100973.94;5081848;28;45272;-76
2021/07/13 03:47:52;;;;;;;;;3.00;3.00;;;;;26.60;45.38;100960.59;5081340;28;45405;-76
2021/07/13 03:50:20;;;;;;;;;4.00;4.00;;;;;26.22;45.49;100914.06;5081787;28;45282;-75
2021/07/13 03:52:46;;;;;;;;;3.75;3.75;;;;;26.28;45.51;100930.03;5081270;28;45333;-76
2021/07/13 03:55:12;;;;;;;;;5.00;4.00;;;;;26.17;45.50;100914.69;5081702;28;45369;-75
2021/07/13 03:57:39;;;;;;;;;3.25;3.25;;;;;26.39;45.23;100949.91;5081121;28;46435;-76
2021/07/13 04:00:10;;;;;;;;;6.75;5.00;;;;;26.33;45.48;100948.09;5080078;28;45281;-76
2021/07/13 04:02:35;;;;;;;;;5.75;5.00;;;;;26.35;45.64;100948.72;5081303;28;45427;-76
2021/07/13 04:05:01;;;;;;;;;4.00;4.00;;;;;26.32;45.63;100951.78;5080007;28;45380;-76
2021/07/13 04:07:26;;;;;;;;;4.75;3.00;;;;;26.23;45.63;100940.50;5081024;28;46348;-75
2021/07/13 04:09:51;;;;;;;;;4.00;4.00;;;;;26.29;45.50;100960.19;5079813;28;45366;-76
2021/07/13 04:12:17;;;;;;;;;4.25;4.00;;;;;26.35;45.26;100956.72;5081213;28;45461;-76
2021/07/13 04:14:42;;;;;;;;;4.00;4.00;;;;;26.26;45.32;100941.94;5081230;28;45379;-76
2021/07/13 04:17:08;;;;;;;;;3.00;3.00;;;;;26.26;45.67;100939.25;5079574;28;48441;-76
2021/07/13 04:19:33;;;;;;;;;5.00;4.00;;;;;26.46;45.32;100963.31;5079756;28;46027;-76
2021/07/13 04:21:58;;;;;;;;;4.00;3.00;;;;;26.25;45.38;100933.13;5081398;28;45336;-76
2021/07/13 04:24:24;;;;;;;;;5.75;4.75;;;;;26.16;45.41;100927.19;5080040;28;45411;-76
2021/07/13 04:26:49;;;;;;;;;6.25;3.50;;;;;26.38;45.70;100955.47;5079200;28;47609;-76
2021/07/13 04:29:15;;;;;;;;;4.00;4.00;;;;;26.39;45.24;100968.59;5081007;28;45505;-76
2021/07/13 04:31:40;;;;;;;;;5.00;4.50;;;;;26.30;45.39;100951.19;5062827;27;45209;-76
2021/07/13 04:34:09;;;;;;;;;6.25;4.00;;;;;26.48;45.67;100981.75;5060859;28;45482;-76
2021/07/13 04:36:36;;;;;;;;;5.67;5.00;;;;;26.37;45.72;100953.81;5063675;28;46105;-76
2021/07/13 04:39:04;;;;;;;;;3.00;3.00;;;;;26.45;45.51;100974.16;5069205;28;45338;-76
2021/07/13 04:41:30;;;;;;;;;4.50;4.25;;;;;26.49;45.48;100972.75;5065808;28;45255;-76
2021/07/13 04:43:56;;;;;;;;;2.67;2.67;;;;;26.30;45.87;100937.84;5067442;28;45282;-76
2021/07/13 04:46:21;;;;;;;;;4.00;4.00;;;;;26.24;45.42;100928.00;5060182;28;46475;-76
2021/07/13 04:48:47;;;;;;;;;6.00;4.75;;;;;26.57;45.48;100979.69;5060729;28;45294;-76
2021/07/13 04:51:12;;;;;;;;;4.00;4.00;;;;;26.72;45.30;101011.47;5060495;28;45260;-76
2021/07/13 04:53:38;;;;;;;;;4.25;4.25;;;;;26.69;45.59;101009.22;5060563;28;45297;-76
2021/07/13 04:56:03;;;;;;;;;3.50;3.50;;;;;26.52;45.43;100988.31;5060097;28;46429;-76
2021/07/13 04:58:29;;;;;;;;;5.25;5.25;;;;;26.32;45.43;100953.63;5060359;28;45369;-76
2021/07/13 05:00:54;;;;;;;;;4.00;4.00;;;;;26.26;45.50;100944.59;5060001;28;45675;-75
2021/07/13 05:03:19;;;;;;;;;4.33;4.33;;;;;26.15;45.64;100930.06;5058223;28;45436;-76
2021/07/13 05:05:45;;;;;;;;;5.50;5.50;;;;;26.24;45.76;100936.00;5075677;28;46189;-76
2021/07/13 05:08:10;;;;;;;;;4.67;4.67;;;;;26.22;45.83;100938.88;5060162;28;45482;-76
2021/07/13 05:10:35;;;;;;;;;4.00;4.00;;;;;26.24;45.24;100950.16;5059877;28;46011;-76
2021/07/13 05:13:01;;;;;;;;;6.00;4.25;;;;;26.34;45.86;100955.06;5060174;28;45450;-78
2021/07/13 05:15:27;;;;;;;;;4.50;3.00;;;;;26.32;45.64;100951.78;5060017;28;46021;-85
2021/07/13 05:17:52;;;;;;;;;3.25;3.25;;;;;26.29;45.35;100949.53;5060545;28;45413;-82
2021/07/13 05:20:17;;;;;;;;;4.00;4.00;;;;;26.39;45.29;100960.59;5060668;28;45444;-82
2021/07/13 05:22:44;;;;;;;;;5.00;5.00;;;;;26.36;45.40;100952.19;5060328;28;45420;-79
2021/07/13 05:25:11;;;;;;;;;4.00;4.00;;;;;26.29;45.54;100944.19;5058566;28;46151;-82
2021/07/13 05:27:42;;;;;;;;;5.25;4.75;;;;;26.63;45.53;101000.19;5070944;28;45169;-77
2021/07/13 05:30:09;;;;;;;;;5.75;3.50;;;;;26.26;45.30;100956.09;5066912;28;45355;-76
2021/07/13 05:32:35;;;;;;;;;6.00;6.00;;;;;26.23;45.69;100951.16;5059789;28;45376;-82
2021/07/13 05:35:00;;;;;;;;;5.33;5.00;;;;;26.24;45.71;100957.31;5058283;28;47242;-79
2021/07/13 05:37:26;;;;;;;;;4.75;4.75;;;;;26.49;45.91;100992.22;5070547;28;45232;-73
2021/07/13 05:39:52;;;;;;;;;4.00;4.00;;;;;26.54;45.50;101007.63;5072484;27;45701;-73
2021/07/13 05:42:17;;;;;;;;;4.50;4.50;;;;;26.47;45.82;100993.44;5072130;28;45474;-73
2021/07/13 05:44:42;;;;;;;;;5.75;5.00;;;;;26.59;45.99;101009.66;5077889;28;45961;-74
2021/07/13 05:47:08;;;;;;;;;4.00;4.00;;;;;26.40;46.18;100983.59;5066662;28;45476;-75
2021/07/13 05:49:33;;;;;;;;;5.75;5.75;;;;;26.28;46.42;100958.56;5072560;27;45337;-75
2021/07/13 05:51:59;;;;;;;;;4.25;4.25;;;;;26.48;46.20;100993.25;5079179;28;45464;-75
2021/07/13 05:54:24;;;;;;;;;5.00;4.00;;;;;26.38;45.79;100968.81;5078803;27;46920;-77
2021/07/13 05:56:50;;;;;;;;;7.25;6.50;;;;;26.50;45.58;100990.38;5059711;28;45415;-77
2021/07/13 05:59:15;;;;;;;;;4.25;4.25;;;;;26.65;46.48;101008.81;5068820;28;45481;-77
2021/07/13 06:01:41;;;;;;;;;4.00;4.00;;;;;26.35;46.15;100974.56;5079813;28;45393;-77
2021/07/13 06:04:06;;;;;;;;;4.00;4.00;;;;;26.36;46.07;100979.66;5079428;28;46273;-75
2021/07/13 06:06:31;;;;;;;;;6.25;6.25;;;;;26.32;46.14;100974.97;5078201;28;45368;-75
2021/07/13 06:08:57;;;;;;;;;3.50;3.50;;;;;26.36;45.89;100995.69;5077968;28;45679;-73
2021/07/13 06:11:22;;;;;;;;;5.00;4.00;;;;;26.14;46.23;100952.41;5076488;28;45547;-87
2021/07/13 06:13:48;;;;;;;;;3.75;3.50;;;;;26.35;46.00;100982.56;5078119;28;47107;-75
2021/07/13 06:16:13;;;;;;;;;4.75;4.00;;;;;26.48;46.11;101003.94;5098538;27;45495;-74
2021/07/13 06:18:38;;;;;;;;;6.25;4.00;;;;;26.37;46.03;100991.16;5081707;28;45168;-74
2021/07/13 06:21:05;;;;;;;;;5.00;5.00;;;;;26.67;46.13;101038.81;5081859;27;45472;-75
2021/07/13 06:23:31;;;;;;;;;4.00;4.00;;;;;26.24;46.72;100973.31;5098904;27;47834;-74
2021/07/13 06:25:56;;;;;;;;;6.25;5.00;;;;;26.24;46.48;100973.31;5069961;28;45188;-75
2021/07/13 06:28:21;;;;;;;;;5.25;5.25;;;;;26.53;46.38;101027.31;5061438;28;45643;-75
2021/07/13 06:30:47;;;;;;;;;6.75;6.00;;;;;26.59;46.30;101031.00;5064098;28;45571;-75
2021/07/13 06:33:12;;;;;;;;;9.00;6.25;;;;;26.48;46.47;101014.59;5078130;28;47072;-75
2021/07/13 06:35:38;;;;;;;;;6.75;6.00;;;;;26.51;46.40;101029.38;5078194;28;45236;-74
2021/07/13 06:38:05;;;;;;;;;6.00;6.00;;;;;26.46;46.79;101026.50;5073702;28;45296;-75
2021/07/13 06:40:31;;;;;;;;;6.25;6.25;;;;;26.26;46.50;100998.75;5062424;28;45473;-75
2021/07/13 06:42:56;;;;;;;;;6.00;4.50;;;;;26.63;46.53;101061.56;5074349;28;47494;-74
2021/07/13 06:45:21;;;;;;;;;6.00;6.00;;;;;26.39;46.58;101024.59;5062376;28;45393;-74
2021/07/13 06:47:48;;;;;;;;;6.25;5.00;;;;;26.40;46.21;101025.44;5061005;28;45402;-74
2021/07/13 06:50:14;;;;;;;;;4.25;4.25;;;;;26.38;46.20;101025.66;5061027;28;45415;-74
2021/07/13 06:52:39;;;;;;;;;5.75;5.00;;;;;26.17;46.48;100995.50;5062122;28;45334;-74
2021/07/13 06:55:07;;;;;;;;;4.75;4.75;;;;;26.31;46.50;101000.00;5062445;28;45244;-74
2021/07/13 06:57:32;;;;;;;;;5.50;4.75;;;;;26.51;46.74;101040.03;5062358;28;45297;-74
2021/07/13 06:59:59;;;;;;;;;8.25;5.25;;;;;26.31;46.82;101006.13;5061832;28;45493;-74
2021/07/13 07:02:26;;;;;;;;;4.00;4.00;;;;;26.24;46.30;100992.00;5061814;28;45565;-74
2021/07/13 07:04:52;;;;;;;;;8.00;6.25;;;;;26.43;46.58;101019.69;5062109;28;45445;-75
2021/07/13 07:07:17;;;;;;;;;7.50;5.00;;;;;26.27;46.76;100999.59;5061800;28;45492;-74
2021/07/13 07:09:43;;;;;;;;;6.00;6.00;;;;;26.38;46.29;101008.81;5060438;28;45520;-74
2021/07/13 07:12:08;;;;;;;;;6.25;6.25;;;;;26.22;46.94;100991.38;5062041;28;45374;-74
2021/07/13 07:14:34;;;;;;;;;7.00;5.00;;;;;26.36;46.66;101018.88;5060565;28;45394;-74
2021/07/13 07:16:59;;;;;;;;;7.25;7.25;;;;;26.25;46.08;101001.66;5060406;28;45511;-74
2021/07/13 07:19:24;;;;;;;;;5.50;5.50;;;;;26.46;46.72;101034.50;5061710;28;45220;-74
2021/07/13 07:21:50;;;;;;;;;6.75;6.25;;;;;26.49;46.43;101039.44;5061879;28;45686;-75
2021/07/13 07:24:15;;;;;;;;;5.75;5.75;;;;;26.22;46.76;101005.53;5061997;28;45220;-75
2021/07/13 07:26:41;;;;;;;;;6.25;6.25;;;;;26.23;46.68;101001.03;5061094;28;45472;-74
2021/07/13 07:29:06;;;;;;;;;6.00;4.75;;;;;26.15;46.06;100994.06;5062370;28;45510;-74
2021/07/13 07:31:32;;;;;;;;;5.50;5.25;;;;;26.59;46.66;101053.19;5064569;27;45375;-74
2021/07/13 07:33:57;;;;;;;;;6.00;6.00;;;;;26.35;46.26;101023.41;5060437;28;45419;-74
2021/07/13 07:36:25;;;;;;;;;7.25;6.00;;;;;26.27;46.57;101004.94;5063349;28;45553;-75
2021/07/13 07:38:51;;;;;;;;;4.75;3.75;;;;;26.62;46.31;101047.41;5070469;28;45523;-74
2021/07/13 07:41:17;;;;;;;;;5.00;4.25;;;;;26.62;46.33;101041.28;5063344;28;48024;-75
2021/07/13 07:43:42;;;;;;;;;6.75;6.50;;;;;26.40;46.38;101007.59;5081822;28;45445;-74
2021/07/13 07:46:07;;;;;;;;;9.00;6.75;;;;;26.32;46.52;101002.47;5081743;28;45220;-74
2021/07/13 07:48:33;;;;;;;;;7.00;6.50;;;;;26.44;46.22;101020.56;5081815;28;45392;-74
2021/07/13 07:50:58;;;;;;;;;7.00;7.00;;;;;26.66;46.09;101052.34;5080177;28;46031;-75
2021/07/13 07:53:24;;;;;;;;;8.00;5.25;;;;;26.50;46.29;101028.53;5080481;28;45410;-74
2021/07/13 07:55:49;;;;;;;;;7.50;7.50;;;;;26.25;46.07;100980.31;5081917;28;45278;-74
2021/07/13 07:58:14;;;;;;;;;7.00;7.00;;;;;26.23;46.16;100982.38;5079903;28;45252;-74
2021/07/13 08:00:40;;;;;;;;;6.25;6.25;;;;;26.31;46.34;100989.34;5080857;28;45500;-74
2021/07/13 08:03:05;;;;;;;;;8.00;8.00;;;;;26.33;45.91;100989.94;5081711;28;45327;-74
2021/07/13 08:05:32;;;;;;;;;8.00;6.25;;;;;26.60;46.57;101044.13;5081500;28;45207;-74
2021/07/13 08:07:58;;;;;;;;;5.25;5.25;;;;;26.33;46.52;101004.13;5096784;27;45466;-74
2021/07/13 08:10:24;;;;;;;;;5.00;5.00;;;;;26.64;46.36;101049.88;5079360;28;46327;-74
2021/07/13 08:12:49;;;;;;;;;6.25;6.25;;;;;26.56;46.39;101042.09;5081440;28;45365;-74
2021/07/13 08:15:15;;;;;;;;;6.75;6.75;;;;;26.38;46.44;101006.16;5081176;28;45364;-74
2021/07/13 08:17:41;;;;;;;;;5.25;5.25;;;;;26.45;46.47;101020.34;5081147;28;45357;-74
2021/07/13 08:20:09;;;;;;;;;9.00;7.75;;;;;26.28;46.24;100985.25;5080513;28;45401;-74
2021/07/13 08:22:35;;;;;;;;;5.50;5.50;;;;;26.33;46.53;101000.63;5081148;28;45299;-74
2021/07/13 08:25:01;;;;;;;;;7.00;6.50;;;;;26.50;46.42;101012.53;5080910;28;45467;-74
2021/07/13 08:27:28;;;;;;;;;6.50;6.50;;;;;26.50;46.33;101022.38;5081399;28;45177;-74
2021/07/13 08:29:53;;;;;;;;;5.50;5.50;;;;;26.28;46.09;100996.69;5077218;28;46502;-75
2021/07/13 08:32:19;;;;;;;;;5.00;5.00;;;;;26.23;46.21;100977.84;5060537;28;45413;-74
2021/07/13 08:34:44;;;;;;;;;6.25;6.25;;;;;26.25;46.48;100988.31;5060402;28;45453;-74
2021/07/13 08:37:09;;;;;;;;;6.50;6.00;;;;;26.12;46.30;100963.28;5068630;28;45604;-74
2021/07/13 08:39:35;;;;;;;;;5.75;5.00;;;;;26.47;46.02;101041.47;5061661;28;46313;-74
2021/07/13 08:42:03;;;;;;;;;5.50;5.50;;;;;26.37;46.21;101034.66;5070144;28;45260;-74
2021/07/13 08:44:29;;;;;;;;;6.75;6.75;;;;;26.15;46.06;100996.72;5080687;28;45552;-74
2021/07/13 08:46:55;;;;;;;;;6.50;5.75;;;;;26.28;46.04;101019.91;5079026;28;45584;-74
2021/07/13 08:49:21;;;;;;;;;5.00;5.00;;;;;26.33;46.04;101028.13;5080540;28;46092;-74
2021/07/13 08:51:47;;;;;;;;;7.25;6.00;;;;;26.54;46.09;101066.31;5080692;28;45219;-74
2021/07/13 08:54:13;;;;;;;;;7.00;7.00;;;;;26.52;45.89;101066.50;5080807;28;45431;-74
2021/07/13 08:56:38;;;;;;;;;4.25;4.25;;;;;26.24;46.21;101014.16;5079172;28;45595;-74
2021/07/13 08:59:05;;;;;;;;;6.00;6.00;;;;;26.37;46.10;101039.19;5078548;28;47827;-74
2021/07/13 09:01:31;;;;;;;;;8.00;7.00;;;;;26.38;46.25;101041.66;5080384;28;45402;-74
2021/07/13 09:04:04;;;;;;;;;6.25;4.25;;;;;26.22;45.88;101013.53;5080551;28;45425;-74
2021/07/13 09:06:48;;;;;;;;;6.00;6.00;;;;;26.43;46.11;101058.88;5079239;28;45416;-74
2021/07/13 09:09:27;;;;;;;;;5.00;4.75;;;;;26.68;46.16;101090.31;5079694;27;46377;-74
2021/07/13 09:12:19;;;;;;;;;7.50;7.00;;;;;26.67;46.33;101092.19;5079732;28;45373;-74
2021/07/13 09:15:04;;;;;;;;;6.25;5.25;;;;;26.39;46.25;101053.13;5080369;28;45493;-75
2021/07/13 09:17:44;;;;;;;;;5.50;5.50;;;;;26.67;46.03;101094.84;5080201;28;45459;-74
2021/07/13 09:20:27;;;;;;;;;6.50;6.50;;;;;26.66;45.85;101103.88;5079602;28;45485;-75
2021/07/13 09:22:58;;;;;;;;;6.00;6.00;;;;;26.66;46.17;101095.03;5080276;28;45532;-75
2021/07/13 09:25:30;;;;;;;;;9.25;8.50;;;;;26.65;46.08;101096.06;5080194;28;45448;-74
2021/07/13 09:28:07;;;;;;;;;6.75;6.75;;;;;26.66;46.03;101103.03;5080190;28;45299;-75
2021/07/13 09:30:33;;;;;;;;;8.00;6.75;;;;;26.26;45.81;101043.28;5072250;28;45549;-75
2021/07/13 09:33:19;;;;;;;;;6.25;6.25;;;;;26.65;46.42;101096.06;5059900;28;45426;-74
2021/07/13 09:36:15;;;;;;;;;8.50;7.50;;;;;26.65;45.86;101102.22;5060102;28;46523;-74
2021/07/13 09:38:44;;;;;;;;;6.25;6.25;;;;;26.64;46.04;101103.25;5059882;28;45327;-74
2021/07/13 09:41:28;;;;;;;;;7.75;7.75;;;;;26.58;46.53;101104.06;5062097;28;45426;-73
2021/07/13 09:44:03;;;;;;;;;6.00;6.00;;;;;26.59;46.21;101114.56;5079800;28;45257;-73
2021/07/13 09:46:36;;;;;;;;;8.00;8.00;;;;;26.53;46.39;101110.03;5079636;28;45341;-73
2021/07/13 09:49:07;;;;;;;;;9.25;7.50;;;;;26.34;46.40;101084.94;5079951;28;45363;-73
2021/07/13 09:51:32;;;;;;;;;5.50;5.50;;;;;26.18;46.25;101061.13;5083550;28;46255;-73
2021/07/13 09:53:58;;;;;;;;;6.75;6.75;;;;;26.58;45.99;101122.75;5081953;28;45905;-73
2021/07/13 09:56:44;;;;;;;;;8.75;8.75;;;;;26.44;45.96;101100.59;5083939;28;45390;-73
2021/07/13 09:59:10;;;;;;;;;6.00;6.00;;;;;26.65;46.40;101147.56;5081885;28;45996;-74
2021/07/13 10:01:36;;;;;;;;;8.50;7.50;;;;;26.54;46.36;101134.84;5076507;28;45746;-74
2021/07/13 10:04:02;;;;;;;;;7.25;7.25;;;;;26.65;46.05;101152.91;5061028;28;45367;-74
2021/07/13 10:06:32;;;;;;;;;7.00;7.00;;;;;26.55;46.32;101137.31;5077506;27;45387;-75
2021/07/13 10:08:59;;;;;;;;;7.75;6.00;;;;;26.65;45.72;101152.91;5061094;28;45759;-75
2021/07/13 10:11:28;;;;;;;;;6.50;6.50;;;;;26.37;45.96;101113.88;5061074;28;47455;-73
2021/07/13 10:13:54;;;;;;;;;8.00;8.00;;;;;26.54;45.95;101151.69;5062573;28;45475;-74
2021/07/13 10:16:20;;;;;;;;;7.75;7.75;;;;;26.41;45.82;101121.25;5062849;28;45247;-73
2021/07/13 10:18:46;;;;;;;;;8.00;8.00;;;;;26.25;45.83;101103.00;5061225;28;45194;-73
2021/07/13 10:21:12;;;;;;;;;5.00;5.00;;;;;26.61;45.90;101159.69;5061983;28;45447;-73
2021/07/13 10:23:38;;;;;;;;;7.00;7.00;;;;;26.28;46.28;101115.94;5062730;28;45231;-73
2021/07/13 10:26:06;;;;;;;;;8.25;8.00;;;;;26.16;46.00;101097.00;5062212;28;45526;-73
2021/07/13 10:28:34;;;;;;;;;8.00;7.25;;;;;26.52;46.18;101146.53;5062330;28;45601;-73
2021/07/13 10:30:59;;;;;;;;;9.00;8.00;;;;;26.68;46.39;101181.03;5067213;28;46506;-73
2021/07/13 10:33:26;;;;;;;;;5.50;5.50;;;;;26.30;45.95;101116.53;5062439;28;46424;-73
2021/07/13 10:35:52;;;;;;;;;8.00;6.75;;;;;26.42;45.73;101130.09;5062824;28;45323;-73
2021/07/13 10:38:23;;;;;;;;;5.00;5.00;;;;;26.41;46.16;101129.25;5075095;28;45259;-74
2021/07/13 10:40:51;;;;;;;;;8.50;8.50;;;;;26.46;46.31;101115.38;5061210;28;47899;-73
2021/07/13 10:43:18;;;;;;;;;7.75;7.75;;;;;26.33;46.31;101092.13;5082302;28;45448;-73
2021/07/13 10:45:46;;;;;;;;;7.25;7.00;;;;;26.46;46.31;101117.19;5082416;28;45477;-73
2021/07/13 10:48:13;;;;;;;;;8.50;8.25;;;;;26.70;46.02;101155.00;5079765;28;45306;-73
2021/07/13 10:50:51;;;;;;;;;8.00;7.50;;;;;26.69;45.99;101143.50;5081017;28;45457;-73
2021/07/13 10:53:21;;;;;;;;;7.75;7.75;;;;;26.41;45.69;101112.44;5077127;28;45301;-73
2021/07/13 10:56:07;;;;;;;;;7.25;7.00;;;;;26.70;46.00;101153.13;5062164;28;45445;-73
2021/07/13 10:58:38;;;;;;;;;6.00;6.00;;;;;26.35;45.94;101105.25;5061724;28;45338;-73
2021/07/13 11:01:07;;;;;;;;;7.00;7.00;;;;;26.32;45.88;101094.97;5060661;28;45295;-73
2021/07/13 11:03:32;;;;;;;;;8.75;8.75;;;;;26.66;45.80;101140.41;5061938;28;45280;-73
2021/07/13 11:05:58;;;;;;;;;11.00;9.50;;;;;26.69;45.94;101161.34;5062200;28;45354;-73
2021/07/13 11:09:00;;;;;;;;;6.50;6.50;;;;;26.58;45.75;101144.91;5061901;28;45677;-73
2021/07/13 11:11:29;;;;;;;;;8.25;8.00;;;;;26.70;46.36;101160.31;5060718;28;45564;-73
2021/07/13 11:14:06;;;;;;;;;8.50;7.50;;;;;26.38;46.18;101104.84;5061525;28;45250;-73
2021/07/13 11:16:34;;;;;;;;;7.25;7.25;;;;;26.38;46.33;101123.53;5061876;28;45470;-73
2021/07/13 11:19:02;;;;;;;;;9.25;8.25;;;;;26.48;46.08;101141.81;5068706;28;45487;-73
2021/07/13 11:21:37;;;;;;;;;7.25;7.25;;;;;26.38;46.17;101121.69;5082185;28;46493;-73
2021/07/13 11:24:06;;;;;;;;;8.50;7.50;;;;;26.47;45.70;101143.66;5082223;28;45346;-73
2021/07/13 11:26:33;;;;;;;;;9.00;7.25;;;;;26.30;46.03;101116.53;5082220;28;45243;-73
2021/07/13 11:29:04;;;;;;;;;8.75;8.75;;;;;26.69;45.94;101166.69;5082215;28;45436;-73